createdAt,value
2022-11-24T00:01:05.327Z,5.80
2022-11-24T00:03:32.678Z,4.20
2022-11-24T00:06:10.856Z,4.22
2022-11-24T00:08:38.905Z,5.88
2022-11-24T00:11:10.258Z,5.43
2022-11-24T00:13:40.577Z,4.93
2022-11-24T00:16:10.782Z,5.72
2022-11-24T00:18:38.849Z,5.15
2022-11-24T00:21:06.286Z,3.35
2022-11-24T00:23:33.980Z,4.03
2022-11-24T00:26:24.537Z,4.72
2022-11-24T00:28:52.626Z,5.28
2022-11-24T00:31:20.941Z,3.95
2022-11-24T00:33:49.142Z,4.75
2022-11-24T00:36:17.239Z,4.53
2022-11-24T00:38:45.143Z,4.38
2022-11-24T00:41:12.776Z,4.47
2022-11-24T00:43:40.012Z,4.80
2022-11-24T00:46:07.393Z,4.97
2022-11-24T00:48:34.893Z,3.53
2022-11-24T00:51:03.249Z,4.75
2022-11-24T00:53:30.507Z,7.38
2022-11-24T00:55:57.877Z,5.95
2022-11-24T00:58:25.615Z,5.15
2022-11-24T01:00:53.440Z,4.30
2022-11-24T01:03:21.500Z,4.88
2022-11-24T01:05:49.102Z,5.53
2022-11-24T01:08:16.453Z,4.95
2022-11-24T01:10:46.555Z,5.25
2022-11-24T01:13:13.786Z,5.82
2022-11-24T01:15:41.141Z,3.85
2022-11-24T01:18:08.405Z,5.35
2022-11-24T01:20:37.556Z,5.28
2022-11-24T01:23:04.894Z,4.55
2022-11-24T01:25:32.131Z,4.90
2022-11-24T01:27:59.365Z,5.75
2022-11-24T01:30:26.617Z,4.60
2022-11-24T01:32:53.849Z,4.80
2022-11-24T01:35:21.033Z,3.88
2022-11-24T01:37:48.226Z,5.13
2022-11-24T01:40:15.456Z,4.75
2022-11-24T01:42:53.148Z,4.90
2022-11-24T01:45:35.900Z,3.40
2022-11-24T01:48:05.406Z,4.97
2022-11-24T01:50:33.023Z,3.88
2022-11-24T01:53:00.264Z,3.95
2022-11-24T01:55:31.180Z,3.42
2022-11-24T01:58:01.237Z,6.60
2022-11-24T02:00:28.470Z,4.20
2022-11-24T02:02:55.749Z,4.78
2022-11-24T02:05:26.007Z,3.60
2022-11-24T02:07:54.691Z,4.03
2022-11-24T02:10:24.661Z,3.23
2022-11-24T02:12:56.372Z,4.15
2022-11-24T02:15:23.661Z,4.85
2022-11-24T02:17:50.847Z,4.03
2022-11-24T02:20:18.407Z,5.40
2022-11-24T02:22:55.279Z,4.47
2022-11-24T02:25:41.311Z,3.53
2022-11-24T02:28:11.034Z,3.40
2022-11-24T02:33:05.358Z,3.60
2022-11-24T02:35:33.031Z,4.57
2022-11-24T02:38:00.302Z,6.85
2022-11-24T02:40:28.712Z,4.00
2022-11-24T02:42:58.718Z,4.53
2022-11-24T02:45:29.776Z,5.28
2022-11-24T02:47:57.068Z,5.32
2022-11-24T02:50:24.455Z,4.13
2022-11-24T02:52:51.662Z,3.92
2022-11-24T02:55:20.192Z,4.63
2022-11-24T02:57:47.464Z,3.83
2022-11-24T03:00:18.055Z,4.78
2022-11-24T03:02:45.409Z,4.82
2022-11-24T03:05:13.119Z,4.72
2022-11-24T03:07:40.408Z,4.65
2022-11-24T03:10:07.716Z,4.25
2022-11-24T03:12:35.045Z,5.53
2022-11-24T03:15:03.292Z,4.05
2022-11-24T03:17:30.682Z,4.45
2022-11-24T03:20:04.308Z,4.22
2022-11-24T03:22:32.297Z,3.50
2022-11-24T03:24:59.585Z,3.70
2022-11-24T03:27:27.005Z,3.25
2022-11-24T03:29:57.355Z,3.38
2022-11-24T03:32:27.302Z,4.32
2022-11-24T03:34:55.241Z,5.80
2022-11-24T03:37:22.568Z,3.70
2022-11-24T03:39:49.867Z,2.90
2022-11-24T03:42:17.131Z,2.88
2022-11-24T03:44:44.446Z,2.03
2022-11-24T03:47:12.414Z,2.17
2022-11-24T03:49:41.446Z,1.65
2022-11-24T03:52:08.820Z,2.53
2022-11-24T03:54:36.200Z,2.55
2022-11-24T03:57:03.506Z,1.33
2022-11-24T03:59:30.703Z,1.23
2022-11-24T04:01:57.990Z,1.10
2022-11-24T04:04:25.257Z,1.65
2022-11-24T04:06:52.557Z,1.88
2022-11-24T04:09:19.730Z,1.70
2022-11-24T04:12:05.733Z,1.52
2022-11-24T04:14:33.316Z,1.98
2022-11-24T04:17:00.765Z,2.60
2022-11-24T04:19:27.962Z,2.30
2022-11-24T04:21:55.284Z,3.10
2022-11-24T04:24:22.650Z,2.90
2022-11-24T04:26:49.890Z,3.70
2022-11-24T04:29:17.174Z,3.17
2022-11-24T04:31:44.522Z,4.05
2022-11-24T04:34:12.037Z,3.28
2022-11-24T04:36:41.053Z,4.72
2022-11-24T04:39:25.614Z,4.30
2022-11-24T04:41:55.226Z,4.68
2022-11-24T04:44:22.708Z,6.35
2022-11-24T04:46:51.354Z,5.75
2022-11-24T04:49:18.701Z,4.47
2022-11-24T04:51:45.972Z,6.30
2022-11-24T04:54:13.870Z,4.43
2022-11-24T04:56:42.097Z,1.92
2022-11-24T04:59:12.956Z,1.55
2022-11-24T05:01:40.216Z,1.25
2022-11-24T05:04:07.535Z,1.48
2022-11-24T05:06:34.759Z,1.10
2022-11-24T05:09:02.001Z,1.95
2022-11-24T05:11:29.208Z,1.17
2022-11-24T05:13:56.401Z,0.93
2022-11-24T05:16:23.924Z,0.80
2022-11-24T05:18:51.405Z,1.00
2022-11-24T05:21:18.729Z,0.85
2022-11-24T05:23:45.963Z,0.65
2022-11-24T05:26:13.297Z,0.70
2022-11-24T05:28:40.515Z,0.80
2022-11-24T05:31:07.913Z,0.75
2022-11-24T05:33:35.208Z,0.85
2022-11-24T05:36:03.523Z,0.80
2022-11-24T05:38:31.368Z,1.08
2022-11-24T05:41:05.786Z,1.10
2022-11-24T05:43:33.059Z,1.58
2022-11-24T05:46:01.107Z,1.05
2022-11-24T05:48:28.557Z,0.80
2022-11-24T05:50:56.417Z,0.88
2022-11-24T05:53:24.039Z,0.82
2022-11-24T05:55:51.322Z,0.90
2022-11-24T05:58:18.659Z,0.70
2022-11-24T06:00:45.843Z,0.73
2022-11-24T06:03:13.151Z,1.17
2022-11-24T06:05:40.495Z,0.90
2022-11-24T06:08:07.845Z,0.88
2022-11-24T06:10:35.215Z,2.15
2022-11-24T06:13:06.258Z,1.13
2022-11-24T06:15:34.370Z,1.60
2022-11-24T06:18:01.665Z,1.65
2022-11-24T06:20:32.626Z,1.17
2022-11-24T06:23:00.678Z,1.35
2022-11-24T06:25:28.416Z,1.48
2022-11-24T06:27:55.738Z,1.77
2022-11-24T06:30:22.930Z,2.10
2022-11-24T06:32:50.277Z,2.50
2022-11-24T06:35:17.557Z,2.50
2022-11-24T06:37:45.865Z,3.72
2022-11-24T06:40:13.615Z,3.40
2022-11-24T06:42:40.868Z,3.10
2022-11-24T06:45:09.621Z,3.55
2022-11-24T06:47:37.288Z,4.15
2022-11-24T06:50:06.363Z,4.35
2022-11-24T06:52:33.633Z,4.07
2022-11-24T06:55:00.861Z,5.25
2022-11-24T06:57:31.187Z,4.93
2022-11-24T06:59:58.565Z,5.68
2022-11-24T07:02:25.815Z,6.22
2022-11-24T07:04:53.082Z,6.40
2022-11-24T07:07:22.984Z,6.22
2022-11-24T07:09:50.320Z,7.13
2022-11-24T07:12:17.589Z,6.88
2022-11-24T07:14:44.849Z,5.93
2022-11-24T07:17:12.573Z,6.55
2022-11-24T07:19:39.785Z,7.80
2022-11-24T07:22:08.866Z,8.68
2022-11-24T07:24:36.397Z,7.60
2022-11-24T07:27:03.834Z,7.63
2022-11-24T07:29:31.203Z,6.85
2022-11-24T07:32:05.498Z,6.40
2022-11-24T07:34:33.454Z,7.10
2022-11-24T07:37:00.934Z,5.90
2022-11-24T07:39:28.176Z,6.90
2022-11-24T07:41:55.483Z,7.43
2022-11-24T07:44:22.870Z,7.90
2022-11-24T07:46:51.314Z,7.55
2022-11-24T07:49:19.190Z,8.07
2022-11-24T07:51:49.036Z,7.10
2022-11-24T07:54:16.507Z,9.00
2022-11-24T07:56:43.802Z,9.07
2022-11-24T07:59:11.043Z,7.03
2022-11-24T08:01:38.454Z,7.72
2022-11-24T08:04:06.090Z,9.00
2022-11-24T08:06:39.873Z,7.50
2022-11-24T08:09:09.309Z,6.18
2022-11-24T08:11:36.765Z,6.88
2022-11-24T08:14:04.039Z,7.30
2022-11-24T08:16:32.217Z,7.53
2022-11-24T08:18:59.539Z,6.75
2022-11-24T08:21:27.005Z,6.25
2022-11-24T08:23:55.274Z,7.45
2022-11-24T08:26:23.077Z,6.22
2022-11-24T08:28:53.855Z,6.10
2022-11-24T08:31:21.404Z,7.55
2022-11-24T08:33:48.876Z,6.28
2022-11-24T08:36:17.425Z,6.78
2022-11-24T08:38:45.059Z,9.00
2022-11-24T08:41:13.738Z,6.53
2022-11-24T08:43:41.312Z,6.75
2022-11-24T08:46:09.828Z,6.53
2022-11-24T08:48:37.402Z,7.18
2022-11-24T08:51:12.186Z,6.03
2022-11-24T08:53:39.804Z,6.05
2022-11-24T08:56:07.764Z,6.47
2022-11-24T08:58:35.383Z,5.90
2022-11-24T09:01:07.301Z,7.20
2022-11-24T09:03:34.801Z,5.32
2022-11-24T09:06:02.712Z,6.10
2022-11-24T09:08:30.326Z,5.55
2022-11-24T09:11:01.989Z,7.50
2022-11-24T09:13:29.503Z,6.30
2022-11-24T09:15:56.802Z,3.75
2022-11-24T09:18:28.858Z,5.53
2022-11-24T09:21:07.064Z,4.10
2022-11-24T09:23:34.653Z,4.72
2022-11-24T09:26:08.965Z,4.82
2022-11-24T09:28:36.430Z,4.07
2022-11-24T09:31:05.541Z,4.60
2022-11-24T09:33:33.443Z,5.18
2022-11-24T09:36:00.773Z,2.92
2022-11-24T09:38:28.187Z,4.88
2022-11-24T09:40:55.928Z,3.10
2022-11-24T09:43:29.058Z,2.38
2022-11-24T09:46:09.480Z,3.53
2022-11-24T09:48:38.967Z,2.90
2022-11-24T09:51:06.614Z,3.53
2022-11-24T09:53:33.929Z,4.45
2022-11-24T09:56:13.372Z,3.28
2022-11-24T09:58:43.824Z,3.22
2022-11-24T10:01:37.591Z,2.38
2022-11-24T10:04:06.642Z,3.05
2022-11-24T10:06:45.152Z,2.75
2022-11-24T10:09:12.533Z,3.45
2022-11-24T10:11:45.572Z,3.30
2022-11-24T10:14:27.319Z,2.70
2022-11-24T10:17:14.488Z,2.65
2022-11-24T10:20:04.065Z,2.15
2022-11-24T10:22:43.451Z,2.47
2022-11-24T10:25:31.302Z,4.40
2022-11-24T10:28:04.029Z,3.47
2022-11-24T10:30:31.482Z,2.40
2022-11-24T10:32:58.897Z,4.05
2022-11-24T10:35:35.739Z,3.50
2022-11-24T10:38:08.373Z,3.13
2022-11-24T10:43:28.033Z,4.15
2022-11-24T10:45:56.132Z,3.35
2022-11-24T10:48:26.519Z,3.17
2022-11-24T10:50:55.017Z,3.10
2022-11-24T10:53:27.569Z,2.58
2022-11-24T10:55:57.663Z,3.38
2022-11-24T10:58:35.885Z,3.90
2022-11-24T11:01:14.526Z,5.13
2022-11-24T11:04:01.686Z,3.03
2022-11-24T11:06:32.732Z,3.70
2022-11-24T11:09:19.640Z,4.53
2022-11-24T11:11:50.232Z,3.10
2022-11-24T11:14:30.018Z,4.70
2022-11-24T11:16:58.404Z,4.68
2022-11-24T11:19:47.740Z,4.80
2022-11-24T11:22:13.025Z,4.40
2022-11-24T11:24:41.417Z,3.03
2022-11-24T11:27:25.245Z,2.83
2022-11-24T11:35:38.591Z,3.25
2022-11-24T11:38:06.994Z,3.80
2022-11-24T11:40:35.607Z,3.65
2022-11-24T11:43:23.310Z,4.10
2022-11-24T11:45:58.031Z,4.78
2022-11-24T11:48:42.672Z,3.78
2022-11-24T11:51:38.250Z,3.35
2022-11-24T11:54:14.873Z,2.80
2022-11-24T11:56:45.138Z,3.88
2022-11-24T11:59:24.488Z,4.25
2022-11-24T12:02:10.447Z,3.80
2022-11-24T12:04:37.875Z,2.85
2022-11-24T12:07:23.826Z,3.38
2022-11-24T12:10:01.686Z,3.20
2022-11-24T12:12:38.223Z,4.18
2022-11-24T12:15:24.494Z,4.07
2022-11-24T12:17:55.965Z,3.30
2022-11-24T12:20:32.420Z,2.80
2022-11-24T12:23:18.504Z,4.03
2022-11-24T12:25:45.799Z,3.97
2022-11-24T12:28:38.165Z,4.25
2022-11-24T12:31:07.175Z,3.67
2022-11-24T12:33:34.650Z,3.97
2022-11-24T12:36:22.222Z,3.67
2022-11-24T12:38:55.467Z,3.47
2022-11-24T12:41:45.549Z,4.00
2022-11-24T12:44:39.273Z,2.60
2022-11-24T12:47:15.357Z,3.22
2022-11-24T12:50:01.712Z,4.93
2022-11-24T12:52:52.895Z,3.35
2022-11-24T12:55:23.892Z,4.60
2022-11-24T12:58:10.789Z,4.28
2022-11-24T13:00:57.482Z,3.03
2022-11-24T13:03:41.714Z,3.50
2022-11-24T13:06:18.671Z,3.67
2022-11-24T13:08:46.386Z,3.40
2022-11-24T13:11:22.994Z,4.32
2022-11-24T13:13:56.426Z,2.95
2022-11-24T13:16:53.544Z,3.67
2022-11-24T13:19:15.540Z,5.25
2022-11-24T13:21:43.037Z,3.35
2022-11-24T13:24:20.236Z,2.95
2022-11-24T13:26:55.656Z,3.50
2022-11-24T13:29:29.017Z,4.40
2022-11-24T13:31:56.934Z,4.28
2022-11-24T13:34:48.390Z,4.53
2022-11-24T13:37:34.649Z,3.78
2022-11-24T13:40:17.104Z,5.07
2022-11-24T13:43:01.475Z,4.70
2022-11-24T13:45:41.769Z,3.67
2022-11-24T13:48:21.914Z,4.82
2022-11-24T13:50:58.910Z,4.47
2022-11-24T13:53:35.451Z,4.28
2022-11-24T13:56:17.789Z,4.75
2022-11-24T13:59:01.901Z,5.00
2022-11-24T14:01:42.344Z,4.05
2022-11-24T14:04:33.993Z,4.10
2022-11-24T14:07:07.976Z,4.03
2022-11-24T14:09:38.263Z,3.97
2022-11-24T14:12:07.353Z,3.78
2022-11-24T14:14:35.097Z,3.42
2022-11-24T14:17:14.789Z,4.85
2022-11-24T14:19:42.777Z,3.30
2022-11-24T14:22:36.497Z,3.45
2022-11-24T14:25:04.712Z,5.45
2022-11-24T14:27:36.528Z,7.43
2022-11-24T14:30:08.038Z,6.65
2022-11-24T14:32:35.514Z,6.18
2022-11-24T14:35:03.532Z,12.65
2022-11-24T14:37:31.240Z,4.68
2022-11-24T14:39:58.613Z,5.35
2022-11-24T14:42:27.392Z,3.85
2022-11-24T14:45:00.746Z,3.60
2022-11-24T14:47:38.514Z,3.70
2022-11-24T14:50:13.476Z,5.95
2022-11-24T14:52:45.733Z,4.00
2022-11-24T14:55:24.763Z,6.13
2022-11-24T14:57:52.097Z,4.55
2022-11-24T15:00:24.969Z,7.75
2022-11-24T15:03:01.242Z,11.32
2022-11-24T15:05:47.329Z,6.68
2022-11-24T15:08:15.074Z,5.00
2022-11-24T15:10:42.423Z,4.07
2022-11-24T15:13:17.490Z,5.25
2022-11-24T15:15:49.405Z,4.00
2022-11-24T15:18:36.825Z,4.60
2022-11-24T15:21:04.458Z,4.82
2022-11-24T15:23:33.209Z,5.13
2022-11-24T15:26:03.778Z,6.53
2022-11-24T15:28:31.631Z,4.60
2022-11-24T15:31:06.496Z,4.07
2022-11-24T15:33:34.086Z,4.13
2022-11-24T15:36:04.687Z,3.25
2022-11-24T15:38:32.031Z,5.15
2022-11-24T15:41:00.341Z,3.92
2022-11-24T15:43:27.796Z,6.35
2022-11-24T15:45:55.110Z,4.00
2022-11-24T15:48:22.622Z,4.07
2022-11-24T15:50:50.563Z,4.07
2022-11-24T15:53:20.407Z,5.40
2022-11-24T15:55:48.185Z,4.53
2022-11-24T15:58:15.643Z,4.28
2022-11-24T16:00:43.721Z,7.45
2022-11-24T16:03:44.431Z,4.88
2022-11-24T16:05:58.680Z,4.78
2022-11-24T16:08:25.917Z,3.53
2022-11-24T16:10:53.396Z,4.68
2022-11-24T16:13:20.706Z,4.18
2022-11-24T16:15:48.018Z,4.32
2022-11-24T16:18:15.664Z,3.53
2022-11-24T16:20:43.027Z,4.35
2022-11-24T16:23:10.295Z,4.47
2022-11-24T16:25:38.054Z,5.28
2022-11-24T16:28:05.392Z,4.53
2022-11-24T16:30:32.883Z,3.72
2022-11-24T16:33:00.191Z,4.28
2022-11-24T16:35:27.429Z,3.45
2022-11-24T16:37:54.741Z,3.55
2022-11-24T16:40:22.119Z,3.72
2022-11-24T16:42:49.458Z,4.07
2022-11-24T16:45:18.005Z,3.58
2022-11-24T16:47:45.304Z,4.30
2022-11-24T16:50:12.987Z,4.28
2022-11-24T16:52:40.508Z,3.95
2022-11-24T16:55:09.639Z,4.10
2022-11-24T16:57:37.299Z,5.13
2022-11-24T17:00:05.626Z,4.78
2022-11-24T17:02:34.257Z,3.88
2022-11-24T17:05:01.781Z,8.80
2022-11-24T17:07:29.234Z,8.23
2022-11-24T17:09:56.761Z,14.60
2022-11-24T17:12:24.064Z,9.77
2022-11-24T17:15:16.403Z,6.47
2022-11-24T17:17:50.002Z,9.90
2022-11-24T17:20:26.088Z,6.63
2022-11-24T17:22:54.517Z,4.70
2022-11-24T17:25:21.808Z,4.95
2022-11-24T17:27:49.089Z,4.47
2022-11-24T17:30:17.094Z,4.57
2022-11-24T17:32:44.382Z,5.45
2022-11-24T17:35:12.063Z,6.57
2022-11-24T17:37:39.347Z,4.72
2022-11-24T17:40:27.316Z,5.28
2022-11-24T17:42:58.192Z,4.50
2022-11-24T17:45:26.617Z,5.00
2022-11-24T17:47:53.974Z,5.18
2022-11-24T17:50:25.656Z,5.25
2022-11-24T17:52:54.347Z,4.88
2022-11-24T17:55:22.553Z,5.07
2022-11-24T17:57:50.516Z,5.25
2022-11-24T18:00:18.061Z,4.72
2022-11-24T18:02:45.575Z,5.68
2022-11-24T18:05:12.880Z,6.03
2022-11-24T18:07:40.282Z,7.35
2022-11-24T18:10:08.600Z,7.30
2022-11-24T18:12:35.972Z,4.95
2022-11-24T18:15:03.732Z,9.32
2022-11-24T18:17:31.030Z,12.65
2022-11-24T18:19:58.409Z,9.45
2022-11-24T18:22:49.854Z,7.03
2022-11-24T18:25:13.302Z,7.47
2022-11-24T18:27:41.412Z,7.72
2022-11-24T18:30:08.918Z,7.55
2022-11-24T18:32:36.255Z,5.20
2022-11-24T18:35:03.648Z,6.40
2022-11-24T18:37:33.117Z,6.05
2022-11-24T18:40:00.662Z,4.32
2022-11-24T18:42:29.349Z,6.22
2022-11-24T18:44:59.347Z,6.18
2022-11-24T18:47:26.946Z,4.72
2022-11-24T18:49:54.532Z,5.72
2022-11-24T18:52:35.127Z,6.18
2022-11-24T18:57:56.675Z,6.00
2022-11-24T19:00:24.025Z,4.70
2022-11-24T19:02:52.001Z,5.57
2022-11-24T19:05:20.121Z,4.75
2022-11-24T19:07:47.476Z,4.85
2022-11-24T19:10:16.036Z,5.40
2022-11-24T19:12:44.824Z,3.40
2022-11-24T19:15:12.265Z,5.03
2022-11-24T19:17:39.584Z,4.28
2022-11-24T19:20:07.374Z,4.97
2022-11-24T19:22:34.668Z,4.82
2022-11-24T19:25:02.132Z,4.28
2022-11-24T19:27:29.724Z,5.85
2022-11-24T19:29:57.179Z,7.07
2022-11-24T19:32:24.513Z,6.20
2022-11-24T19:34:51.806Z,4.55
2022-11-24T19:37:19.068Z,4.90
2022-11-24T19:39:46.360Z,4.88
2022-11-24T19:42:13.685Z,4.30
2022-11-24T19:44:40.922Z,4.00
2022-11-24T19:47:08.199Z,6.90
2022-11-24T19:49:35.527Z,4.20
2022-11-24T19:52:02.911Z,6.03
2022-11-24T19:54:30.230Z,4.53
2022-11-24T19:56:57.584Z,4.32
2022-11-24T19:59:26.466Z,4.25
2022-11-24T20:01:54.287Z,4.13
2022-11-24T20:04:21.777Z,4.38
2022-11-24T20:06:49.114Z,4.38
2022-11-24T20:09:17.336Z,4.68
2022-11-24T20:11:44.824Z,5.70
2022-11-24T20:14:13.218Z,6.07
2022-11-24T20:16:40.628Z,5.47
2022-11-24T20:19:12.535Z,6.32
2022-11-24T20:21:41.573Z,7.28
2022-11-24T20:24:12.672Z,5.25
2022-11-24T20:26:42.134Z,8.98
2022-11-24T20:29:13.016Z,6.07
2022-11-24T20:31:42.042Z,5.20
2022-11-24T20:34:09.788Z,5.80
2022-11-24T20:36:38.151Z,3.72
2022-11-24T20:39:06.743Z,7.10
2022-11-24T20:41:34.962Z,4.47
2022-11-24T20:44:08.166Z,4.20
2022-11-24T20:46:36.590Z,4.47
2022-11-24T20:49:07.526Z,4.75
2022-11-24T20:51:37.119Z,4.03
2022-11-24T20:54:06.251Z,4.45
2022-11-24T20:56:39.605Z,4.38
2022-11-24T20:59:07.294Z,4.75
2022-11-24T21:01:38.609Z,4.80
2022-11-24T21:04:10.041Z,4.57
2022-11-24T21:06:37.720Z,3.15
2022-11-24T21:09:06.026Z,5.00
2022-11-24T21:11:33.489Z,5.22
2022-11-24T21:14:01.260Z,5.75
2022-11-24T21:16:29.844Z,5.03
2022-11-24T21:18:58.361Z,3.95
2022-11-24T21:21:26.833Z,4.22
2022-11-24T21:23:54.546Z,4.55
2022-11-24T21:26:21.799Z,4.90
2022-11-24T21:28:49.473Z,4.32
2022-11-24T21:31:18.263Z,6.43
2022-11-24T21:33:49.690Z,4.65
2022-11-24T21:36:19.053Z,4.22
2022-11-24T21:38:50.617Z,4.70
2022-11-24T21:41:18.513Z,5.15
2022-11-24T21:43:45.814Z,4.40
2022-11-24T21:46:13.344Z,5.35
2022-11-24T21:48:41.961Z,3.53
2022-11-24T21:51:12.520Z,5.40
2022-11-24T21:53:40.127Z,4.57
2022-11-24T21:56:13.015Z,6.15
2022-11-24T21:58:50.371Z,4.38
2022-11-24T22:01:19.339Z,4.93
2022-11-24T22:03:47.044Z,4.30
2022-11-24T22:06:14.414Z,4.60
2022-11-24T22:08:41.657Z,4.55
2022-11-24T22:11:11.839Z,4.78
2022-11-24T22:13:39.138Z,5.40
2022-11-24T22:16:08.131Z,5.00
2022-11-24T22:18:36.414Z,5.35
2022-11-24T22:21:03.959Z,4.60
2022-11-24T22:23:31.753Z,5.90
2022-11-24T22:26:05.245Z,5.40
2022-11-24T22:28:36.003Z,4.35
2022-11-24T22:31:09.867Z,4.72
2022-11-24T22:33:37.540Z,3.90
2022-11-24T22:36:05.161Z,6.05
2022-11-24T22:38:33.006Z,5.32
2022-11-24T22:41:04.437Z,4.65
2022-11-24T22:43:32.678Z,4.47
2022-11-24T22:46:07.631Z,5.80
2022-11-24T22:48:35.531Z,5.15
2022-11-24T22:51:06.720Z,6.20
2022-11-24T22:53:34.376Z,5.00
2022-11-24T22:56:05.744Z,4.65
2022-11-24T22:58:33.284Z,5.20
2022-11-24T23:01:14.252Z,5.90
2022-11-24T23:03:42.003Z,5.97
2022-11-24T23:06:14.918Z,3.75
2022-11-24T23:08:42.607Z,4.13
2022-11-24T23:11:14.244Z,4.10
2022-11-24T23:13:42.109Z,4.30
2022-11-24T23:16:11.308Z,5.07
2022-11-24T23:18:39.198Z,3.83
2022-11-24T23:21:12.087Z,4.47
2022-11-24T23:23:40.190Z,8.40
2022-11-24T23:26:08.574Z,4.32
2022-11-24T23:28:35.909Z,6.25
2022-11-24T23:31:04.279Z,5.25
2022-11-24T23:33:31.649Z,4.65
2022-11-24T23:36:06.650Z,4.20
2022-11-24T23:38:34.261Z,5.57
2022-11-24T23:41:04.109Z,6.10
2022-11-24T23:43:35.144Z,4.78
2022-11-24T23:46:03.358Z,6.85
2022-11-24T23:48:30.670Z,4.72
2022-11-24T23:50:58.538Z,5.22
2022-11-24T23:53:25.748Z,4.95
2022-11-24T23:55:56.484Z,4.47
2022-11-24T23:58:23.672Z,5.32
